TimeCDT,TemperatureF,Dew PointF,Humidity,Sea Level PressureIn,VisibilityMPH,Wind Direction,Wind SpeedMPH,Gust SpeedMPH,PrecipitationIn,Events,Conditions,WindDirDegrees,DateUTC
12:52 AM,75.0,66.9,76,30.17,10.0,South,8.1,-,N/A,,Clear,170,2013-07-16 05:52:00
1:52 AM,73.0,66.9,81,30.17,10.0,South,6.9,-,N/A,,Clear,190,2013-07-16 06:52:00
2:52 AM,71.1,66.9,87,30.17,8.0,South,5.8,-,N/A,,Partly Cloudy,190,2013-07-16 07:52:00
3:52 AM,70.0,66.9,90,30.18,8.0,South,4.6,-,N/A,,Clear,180,2013-07-16 08:52:00
4:52 AM,66.9,64.9,93,30.18,5.0,South,5.8,-,N/A,,Clear,170,2013-07-16 09:52:00
5:52 AM,68.0,64.9,90,30.19,4.0,South,6.9,-,N/A,,Clear,170,2013-07-16 10:52:00
6:52 AM,70.0,68.0,93,30.20,4.0,South,6.9,-,N/A,,Clear,180,2013-07-16 11:52:00
7:52 AM,73.0,69.1,87,30.21,7.0,South,9.2,-,N/A,,Clear,190,2013-07-16 12:52:00
8:52 AM,78.1,69.1,74,30.22,10.0,SSW,6.9,-,N/A,,Clear,210,2013-07-16 13:52:00
9:52 AM,82.0,70.0,67,30.22,10.0,SSW,9.2,-,N/A,,Clear,210,2013-07-16 14:52:00
10:52 AM,84.9,70.0,61,30.22,10.0,SW,6.9,-,N/A,,Clear,220,2013-07-16 15:52:00
11:52 AM,84.9,66.0,53,30.23,10.0,SW,10.4,-,N/A,,Clear,230,2013-07-16 16:52:00
12:52 PM,87.1,66.9,51,30.22,10.0,SW,6.9,17.3,N/A,,Clear,230,2013-07-16 17:52:00
1:52 PM,88.0,66.9,49,30.22,10.0,Variable,6.9,-,N/A,,Partly Cloudy,0,2013-07-16 18:52:00
2:52 PM,89.1,66.0,46,30.22,10.0,South,11.5,16.1,N/A,,Clear,190,2013-07-16 19:52:00
3:52 PM,89.1,64.9,45,30.21,10.0,SW,8.1,-,N/A,,Partly Cloudy,220,2013-07-16 20:52:00
4:52 PM,89.1,66.0,46,30.21,10.0,SW,11.5,-,N/A,,Clear,220,2013-07-16 21:52:00
5:52 PM,88.0,66.0,48,30.20,10.0,SSW,8.1,-,N/A,,Clear,210,2013-07-16 22:52:00
6:52 PM,87.1,66.0,49,30.19,10.0,SSW,8.1,-,N/A,,Clear,210,2013-07-16 23:52:00
7:52 PM,84.0,68.0,58,30.19,10.0,SW,4.6,-,N/A,,Clear,220,2013-07-17 00:52:00
8:52 PM,81.0,68.0,65,30.20,10.0,SW,4.6,-,N/A,,Clear,220,2013-07-17 01:52:00
9:52 PM,75.0,68.0,79,30.22,10.0,South,4.6,-,N/A,,Clear,190,2013-07-17 02:52:00
10:52 PM,73.9,66.9,79,30.23,10.0,South,3.5,-,N/A,,Clear,190,2013-07-17 03:52:00
11:52 PM,73.0,66.9,81,30.24,10.0,SSW,3.5,-,N/A,,Clear,200,2013-07-17 04:52:00